sensor_id;sensor_type;location;lat;lon;timestamp;temperature;humidity
22526;DHT22;11429;50.842;4.386;2023-01-28T00:02:19;6.10;99.90
22526;DHT22;11429;50.842;4.386;2023-01-28T00:04:45;6.10;99.90
22526;DHT22;11429;50.842;4.386;2023-01-28T00:07:10;6.20;99.90
22526;DHT22;11429;50.842;4.386;2023-01-28T00:09:36;6.10;99.90
22526;DHT22;11429;50.842;4.386;2023-01-28T00:12:04;6.10;99.90
22526;DHT22;11429;50.842;4.386;2023-01-28T00:14:29;6.30;99.90
22526;DHT22;11429;50.842;4.386;2023-01-28T00:16:55;6.50;99.90
22526;DHT22;11429;50.842;4.386;2023-01-28T00:19:21;6.00;99.90
22526;DHT22;11429;50.842;4.386;2023-01-28T00:21:46;6.00;99.90
22526;DHT22;11429;50.842;4.386;2023-01-28T00:24:12;5.90;99.90
22526;DHT22;11429;50.842;4.386;2023-01-28T00:26:37;6.00;99.90
22526;DHT22;11429;50.842;4.386;2023-01-28T00:29:03;6.30;99.90
22526;DHT22;11429;50.842;4.386;2023-01-28T00:31:29;6.10;99.90
22526;DHT22;11429;50.842;4.386;2023-01-28T00:33:55;6.10;99.90
22526;DHT22;11429;50.842;4.386;2023-01-28T00:36:23;6.40;99.90
22526;DHT22;11429;50.842;4.386;2023-01-28T00:38:50;6.50;99.90
22526;DHT22;11429;50.842;4.386;2023-01-28T00:41:18;6.30;99.90
22526;DHT22;11429;50.842;4.386;2023-01-28T00:43:47;6.40;99.90
22526;DHT22;11429;50.842;4.386;2023-01-28T00:46:13;6.20;99.90
22526;DHT22;11429;50.842;4.386;2023-01-28T00:48:39;6.20;99.90
22526;DHT22;11429;50.842;4.386;2023-01-28T00:51:07;5.90;99.90
22526;DHT22;11429;50.842;4.386;2023-01-28T00:53:33;6.10;99.90
22526;DHT22;11429;50.842;4.386;2023-01-28T00:56:00;6.10;99.90
22526;DHT22;11429;50.842;4.386;2023-01-28T00:58:26;6.10;99.90
22526;DHT22;11429;50.842;4.386;2023-01-28T01:00:52;6.10;99.90
22526;DHT22;11429;50.842;4.386;2023-01-28T01:03:18;6.30;99.90
22526;DHT22;11429;50.842;4.386;2023-01-28T01:05:44;6.20;99.90
22526;DHT22;11429;50.842;4.386;2023-01-28T01:08:10;6.00;99.90
22526;DHT22;11429;50.842;4.386;2023-01-28T01:10:37;5.80;99.90
22526;DHT22;11429;50.842;4.386;2023-01-28T01:13:04;5.90;99.90
22526;DHT22;11429;50.842;4.386;2023-01-28T01:15:30;6.30;99.90
22526;DHT22;11429;50.842;4.386;2023-01-28T01:17:56;6.30;99.90
22526;DHT22;11429;50.842;4.386;2023-01-28T01:20:25;6.00;99.90
22526;DHT22;11429;50.842;4.386;2023-01-28T01:22:51;6.00;99.90
22526;DHT22;11429;50.842;4.386;2023-01-28T01:25:17;5.80;99.90
22526;DHT22;11429;50.842;4.386;2023-01-28T01:27:44;5.90;99.90
22526;DHT22;11429;50.842;4.386;2023-01-28T01:30:13;5.80;99.90
22526;DHT22;11429;50.842;4.386;2023-01-28T01:32:38;5.80;99.90
22526;DHT22;11429;50.842;4.386;2023-01-28T01:35:05;5.70;99.90
22526;DHT22;11429;50.842;4.386;2023-01-28T01:37:33;5.90;99.90
22526;DHT22;11429;50.842;4.386;2023-01-28T01:39:59;6.00;99.90
22526;DHT22;11429;50.842;4.386;2023-01-28T01:42:27;5.60;99.90
22526;DHT22;11429;50.842;4.386;2023-01-28T01:47:52;5.70;99.90
22526;DHT22;11429;50.842;4.386;2023-01-28T01:51:11;5.90;99.90
22526;DHT22;11429;50.842;4.386;2023-01-28T01:53:18;5.90;99.90
22526;DHT22;11429;50.842;4.386;2023-01-28T01:55:48;5.80;99.90
22526;DHT22;11429;50.842;4.386;2023-01-28T01:58:18;6.10;99.90
22526;DHT22;11429;50.842;4.386;2023-01-28T02:00:44;6.10;99.90
22526;DHT22;11429;50.842;4.386;2023-01-28T02:03:11;6.10;99.90
22526;DHT22;11429;50.842;4.386;2023-01-28T02:05:38;6.20;99.90
22526;DHT22;11429;50.842;4.386;2023-01-28T02:08:04;6.10;99.90
22526;DHT22;11429;50.842;4.386;2023-01-28T02:11:05;6.00;99.90
22526;DHT22;11429;50.842;4.386;2023-01-28T02:13:41;6.10;99.90
22526;DHT22;11429;50.842;4.386;2023-01-28T02:16:08;5.80;99.90
22526;DHT22;11429;50.842;4.386;2023-01-28T02:18:35;5.90;99.90
22526;DHT22;11429;50.842;4.386;2023-01-28T02:29:31;5.80;99.90
22526;DHT22;11429;50.842;4.386;2023-01-28T02:37:19;5.80;99.90
22526;DHT22;11429;50.842;4.386;2023-01-28T02:39:51;5.70;99.90
22526;DHT22;11429;50.842;4.386;2023-01-28T02:42:29;5.60;99.90
22526;DHT22;11429;50.842;4.386;2023-01-28T02:44:55;5.80;99.90
22526;DHT22;11429;50.842;4.386;2023-01-28T02:47:20;5.90;99.90
22526;DHT22;11429;50.842;4.386;2023-01-28T02:50:12;5.60;99.90
22526;DHT22;11429;50.842;4.386;2023-01-28T02:58:50;5.90;99.90
22526;DHT22;11429;50.842;4.386;2023-01-28T03:03:54;5.90;99.90
22526;DHT22;11429;50.842;4.386;2023-01-28T03:06:24;5.70;99.90
22526;DHT22;11429;50.842;4.386;2023-01-28T03:08:57;5.70;99.90
22526;DHT22;11429;50.842;4.386;2023-01-28T03:11:45;5.80;99.90
22526;DHT22;11429;50.842;4.386;2023-01-28T03:14:32;5.90;99.90
22526;DHT22;11429;50.842;4.386;2023-01-28T03:17:31;5.90;99.90
22526;DHT22;11429;50.842;4.386;2023-01-28T03:20:17;6.10;99.90
22526;DHT22;11429;50.842;4.386;2023-01-28T03:23:08;5.70;99.90
22526;DHT22;11429;50.842;4.386;2023-01-28T03:25:57;5.90;99.90
22526;DHT22;11429;50.842;4.386;2023-01-28T03:28:45;6.10;99.90
22526;DHT22;11429;50.842;4.386;2023-01-28T03:31:30;6.10;99.90
22526;DHT22;11429;50.842;4.386;2023-01-28T03:34:16;6.00;99.90
22526;DHT22;11429;50.842;4.386;2023-01-28T03:37:01;6.00;99.90
22526;DHT22;11429;50.842;4.386;2023-01-28T03:39:28;6.10;99.90
22526;DHT22;11429;50.842;4.386;2023-01-28T03:42:07;6.10;99.90
22526;DHT22;11429;50.842;4.386;2023-01-28T03:44:33;6.00;99.90
22526;DHT22;11429;50.842;4.386;2023-01-28T03:47:25;5.90;99.90
22526;DHT22;11429;50.842;4.386;2023-01-28T03:49:53;5.80;99.90
22526;DHT22;11429;50.842;4.386;2023-01-28T03:52:22;5.60;99.90
22526;DHT22;11429;50.842;4.386;2023-01-28T03:54:49;5.50;99.90
22526;DHT22;11429;50.842;4.386;2023-01-28T03:57:17;5.70;99.90
22526;DHT22;11429;50.842;4.386;2023-01-28T03:59:43;5.90;99.90
22526;DHT22;11429;50.842;4.386;2023-01-28T04:02:10;6.00;99.90
22526;DHT22;11429;50.842;4.386;2023-01-28T04:04:39;5.80;99.90
22526;DHT22;11429;50.842;4.386;2023-01-28T04:07:06;5.80;99.90
22526;DHT22;11429;50.842;4.386;2023-01-28T04:09:34;5.70;99.90
22526;DHT22;11429;50.842;4.386;2023-01-28T04:12:00;5.70;99.90
22526;DHT22;11429;50.842;4.386;2023-01-28T04:14:26;5.80;99.90
22526;DHT22;11429;50.842;4.386;2023-01-28T04:16:52;5.70;99.90
22526;DHT22;11429;50.842;4.386;2023-01-28T04:19:19;5.90;99.90
22526;DHT22;11429;50.842;4.386;2023-01-28T04:21:45;5.70;99.90
22526;DHT22;11429;50.842;4.386;2023-01-28T04:24:12;5.90;99.90
22526;DHT22;11429;50.842;4.386;2023-01-28T04:26:38;5.70;99.90
22526;DHT22;11429;50.842;4.386;2023-01-28T04:29:04;5.70;99.90
22526;DHT22;11429;50.842;4.386;2023-01-28T04:31:30;5.40;99.90
22526;DHT22;11429;50.842;4.386;2023-01-28T04:33:56;5.60;99.90
22526;DHT22;11429;50.842;4.386;2023-01-28T04:36:22;5.60;99.90
22526;DHT22;11429;50.842;4.386;2023-01-28T04:38:48;5.50;99.90
22526;DHT22;11429;50.842;4.386;2023-01-28T04:41:14;5.60;99.90
22526;DHT22;11429;50.842;4.386;2023-01-28T04:43:39;5.40;99.90
22526;DHT22;11429;50.842;4.386;2023-01-28T04:46:05;5.60;99.90
22526;DHT22;11429;50.842;4.386;2023-01-28T04:48:31;5.50;99.90
22526;DHT22;11429;50.842;4.386;2023-01-28T04:50:57;5.30;99.90
22526;DHT22;11429;50.842;4.386;2023-01-28T04:53:23;5.50;99.90
22526;DHT22;11429;50.842;4.386;2023-01-28T04:55:48;5.80;99.90
22526;DHT22;11429;50.842;4.386;2023-01-28T04:58:14;5.80;99.90
22526;DHT22;11429;50.842;4.386;2023-01-28T05:00:39;5.60;99.90
22526;DHT22;11429;50.842;4.386;2023-01-28T05:03:05;5.30;99.90
22526;DHT22;11429;50.842;4.386;2023-01-28T05:05:31;5.30;99.90
22526;DHT22;11429;50.842;4.386;2023-01-28T05:07:57;5.70;99.90
22526;DHT22;11429;50.842;4.386;2023-01-28T05:10:24;5.70;99.90
22526;DHT22;11429;50.842;4.386;2023-01-28T05:12:50;5.80;99.90
22526;DHT22;11429;50.842;4.386;2023-01-28T05:15:17;5.70;99.90
22526;DHT22;11429;50.842;4.386;2023-01-28T05:17:43;5.60;99.90
22526;DHT22;11429;50.842;4.386;2023-01-28T05:20:10;5.50;99.90
22526;DHT22;11429;50.842;4.386;2023-01-28T05:22:37;5.30;99.90
22526;DHT22;11429;50.842;4.386;2023-01-28T05:25:03;5.40;99.90
22526;DHT22;11429;50.842;4.386;2023-01-28T05:27:29;5.20;99.90
22526;DHT22;11429;50.842;4.386;2023-01-28T05:29:55;5.30;99.90
22526;DHT22;11429;50.842;4.386;2023-01-28T05:32:21;5.20;99.90
22526;DHT22;11429;50.842;4.386;2023-01-28T05:34:46;5.30;99.90
22526;DHT22;11429;50.842;4.386;2023-01-28T05:37:12;5.30;99.90
22526;DHT22;11429;50.842;4.386;2023-01-28T05:39:38;5.50;99.90
22526;DHT22;11429;50.842;4.386;2023-01-28T05:42:03;5.20;99.90
22526;DHT22;11429;50.842;4.386;2023-01-28T05:44:29;5.00;99.90
22526;DHT22;11429;50.842;4.386;2023-01-28T05:46:55;5.20;99.90
22526;DHT22;11429;50.842;4.386;2023-01-28T05:49:20;5.20;99.90
22526;DHT22;11429;50.842;4.386;2023-01-28T05:51:46;5.40;99.90
22526;DHT22;11429;50.842;4.386;2023-01-28T05:54:13;5.50;99.90
22526;DHT22;11429;50.842;4.386;2023-01-28T05:56:39;5.30;99.90
22526;DHT22;11429;50.842;4.386;2023-01-28T05:59:05;5.20;99.90
22526;DHT22;11429;50.842;4.386;2023-01-28T06:01:31;5.20;99.90
22526;DHT22;11429;50.842;4.386;2023-01-28T06:03:57;5.30;99.90
22526;DHT22;11429;50.842;4.386;2023-01-28T06:06:23;5.40;99.90
22526;DHT22;11429;50.842;4.386;2023-01-28T06:08:49;5.50;99.90
22526;DHT22;11429;50.842;4.386;2023-01-28T06:11:15;5.40;99.90
22526;DHT22;11429;50.842;4.386;2023-01-28T06:13:40;5.40;99.90
22526;DHT22;11429;50.842;4.386;2023-01-28T06:16:06;5.40;99.90
22526;DHT22;11429;50.842;4.386;2023-01-28T06:18:32;5.50;99.90
22526;DHT22;11429;50.842;4.386;2023-01-28T06:20:58;5.40;99.90
22526;DHT22;11429;50.842;4.386;2023-01-28T06:23:24;5.20;99.90
22526;DHT22;11429;50.842;4.386;2023-01-28T06:25:56;4.90;99.90
22526;DHT22;11429;50.842;4.386;2023-01-28T06:28:22;5.20;99.90
22526;DHT22;11429;50.842;4.386;2023-01-28T06:30:49;5.20;99.90
22526;DHT22;11429;50.842;4.386;2023-01-28T06:33:15;5.00;99.90
22526;DHT22;11429;50.842;4.386;2023-01-28T06:35:41;5.00;99.90
22526;DHT22;11429;50.842;4.386;2023-01-28T06:38:07;5.20;99.90
22526;DHT22;11429;50.842;4.386;2023-01-28T06:40:32;5.00;99.90
22526;DHT22;11429;50.842;4.386;2023-01-28T06:42:58;5.00;99.90
22526;DHT22;11429;50.842;4.386;2023-01-28T06:45:24;5.10;99.90
22526;DHT22;11429;50.842;4.386;2023-01-28T06:47:50;4.90;99.90
22526;DHT22;11429;50.842;4.386;2023-01-28T06:50:16;5.00;99.90
22526;DHT22;11429;50.842;4.386;2023-01-28T06:52:42;5.20;99.90
22526;DHT22;11429;50.842;4.386;2023-01-28T06:55:08;5.30;99.90
22526;DHT22;11429;50.842;4.386;2023-01-28T06:57:40;5.40;99.90
22526;DHT22;11429;50.842;4.386;2023-01-28T07:00:10;5.40;99.90
22526;DHT22;11429;50.842;4.386;2023-01-28T07:02:37;5.30;99.90
22526;DHT22;11429;50.842;4.386;2023-01-28T07:05:04;5.40;99.90
22526;DHT22;11429;50.842;4.386;2023-01-28T07:07:29;5.10;99.90
22526;DHT22;11429;50.842;4.386;2023-01-28T07:09:55;4.90;99.90
22526;DHT22;11429;50.842;4.386;2023-01-28T07:12:21;4.90;99.90
22526;DHT22;11429;50.842;4.386;2023-01-28T07:14:46;4.80;99.90
22526;DHT22;11429;50.842;4.386;2023-01-28T07:17:12;4.80;99.90
22526;DHT22;11429;50.842;4.386;2023-01-28T07:19:37;4.70;99.90
22526;DHT22;11429;50.842;4.386;2023-01-28T07:22:03;4.60;99.90
22526;DHT22;11429;50.842;4.386;2023-01-28T07:24:29;4.50;99.90
22526;DHT22;11429;50.842;4.386;2023-01-28T07:26:55;4.60;99.90
22526;DHT22;11429;50.842;4.386;2023-01-28T07:29:21;4.80;99.90
22526;DHT22;11429;50.842;4.386;2023-01-28T07:31:46;5.00;99.90
22526;DHT22;11429;50.842;4.386;2023-01-28T07:34:12;4.80;99.90
22526;DHT22;11429;50.842;4.386;2023-01-28T07:36:38;5.00;99.90
22526;DHT22;11429;50.842;4.386;2023-01-28T07:39:04;5.10;99.90
22526;DHT22;11429;50.842;4.386;2023-01-28T07:41:31;5.10;99.90
22526;DHT22;11429;50.842;4.386;2023-01-28T07:43:57;4.90;99.90
22526;DHT22;11429;50.842;4.386;2023-01-28T07:46:23;5.30;99.90
22526;DHT22;11429;50.842;4.386;2023-01-28T07:48:48;5.20;99.90
22526;DHT22;11429;50.842;4.386;2023-01-28T07:51:15;5.20;99.90
22526;DHT22;11429;50.842;4.386;2023-01-28T07:53:42;5.30;99.90
22526;DHT22;11429;50.842;4.386;2023-01-28T07:56:07;5.00;99.90
22526;DHT22;11429;50.842;4.386;2023-01-28T07:58:33;5.20;99.90
22526;DHT22;11429;50.842;4.386;2023-01-28T08:01:00;4.80;99.90
22526;DHT22;11429;50.842;4.386;2023-01-28T08:03:26;5.00;99.90
22526;DHT22;11429;50.842;4.386;2023-01-28T08:05:54;5.20;99.90
22526;DHT22;11429;50.842;4.386;2023-01-28T08:08:21;4.50;99.90
22526;DHT22;11429;50.842;4.386;2023-01-28T08:10:47;4.40;99.90
22526;DHT22;11429;50.842;4.386;2023-01-28T08:13:14;4.50;99.90
22526;DHT22;11429;50.842;4.386;2023-01-28T08:15:41;4.80;99.90
22526;DHT22;11429;50.842;4.386;2023-01-28T08:18:08;4.80;99.90
22526;DHT22;11429;50.842;4.386;2023-01-28T08:20:37;4.70;99.90
22526;DHT22;11429;50.842;4.386;2023-01-28T08:25:37;5.00;99.90
22526;DHT22;11429;50.842;4.386;2023-01-28T08:28:04;5.00;99.90
22526;DHT22;11429;50.842;4.386;2023-01-28T08:30:30;4.90;99.90
22526;DHT22;11429;50.842;4.386;2023-01-28T08:32:57;4.60;99.90
22526;DHT22;11429;50.842;4.386;2023-01-28T08:35:27;4.60;99.90
22526;DHT22;11429;50.842;4.386;2023-01-28T08:37:52;5.00;99.90
22526;DHT22;11429;50.842;4.386;2023-01-28T08:40:19;5.10;99.90
22526;DHT22;11429;50.842;4.386;2023-01-28T08:42:49;5.00;99.90
22526;DHT22;11429;50.842;4.386;2023-01-28T08:45:15;5.00;99.90
22526;DHT22;11429;50.842;4.386;2023-01-28T08:48:01;4.50;99.90
22526;DHT22;11429;50.842;4.386;2023-01-28T08:50:29;4.60;99.90
22526;DHT22;11429;50.842;4.386;2023-01-28T08:53:02;4.60;99.90
22526;DHT22;11429;50.842;4.386;2023-01-28T08:55:28;4.50;99.90
22526;DHT22;11429;50.842;4.386;2023-01-28T08:57:54;4.60;99.90
22526;DHT22;11429;50.842;4.386;2023-01-28T09:00:21;4.70;99.90
22526;DHT22;11429;50.842;4.386;2023-01-28T09:02:50;4.60;99.90
22526;DHT22;11429;50.842;4.386;2023-01-28T09:05:17;4.80;99.90
22526;DHT22;11429;50.842;4.386;2023-01-28T09:07:43;4.80;99.90
22526;DHT22;11429;50.842;4.386;2023-01-28T09:10:09;5.00;99.90
22526;DHT22;11429;50.842;4.386;2023-01-28T09:12:35;5.20;99.90
22526;DHT22;11429;50.842;4.386;2023-01-28T09:15:01;5.00;99.90
22526;DHT22;11429;50.842;4.386;2023-01-28T09:17:27;4.70;99.90
22526;DHT22;11429;50.842;4.386;2023-01-28T09:19:53;4.50;99.90
22526;DHT22;11429;50.842;4.386;2023-01-28T09:22:18;4.50;99.90
22526;DHT22;11429;50.842;4.386;2023-01-28T09:24:44;4.70;99.90
22526;DHT22;11429;50.842;4.386;2023-01-28T09:27:09;4.90;99.90
22526;DHT22;11429;50.842;4.386;2023-01-28T09:29:35;5.10;99.90
22526;DHT22;11429;50.842;4.386;2023-01-28T09:32:02;5.10;99.90
22526;DHT22;11429;50.842;4.386;2023-01-28T09:34:28;5.10;99.90
22526;DHT22;11429;50.842;4.386;2023-01-28T09:36:54;5.20;99.90
22526;DHT22;11429;50.842;4.386;2023-01-28T09:39:19;5.20;99.90
22526;DHT22;11429;50.842;4.386;2023-01-28T09:46:46;4.60;99.90
22526;DHT22;11429;50.842;4.386;2023-01-28T09:49:31;4.50;99.90
22526;DHT22;11429;50.842;4.386;2023-01-28T09:51:59;4.70;99.90
22526;DHT22;11429;50.842;4.386;2023-01-28T09:54:36;5.30;99.90
22526;DHT22;11429;50.842;4.386;2023-01-28T09:57:29;5.40;99.90
22526;DHT22;11429;50.842;4.386;2023-01-28T09:59:56;5.00;99.90
22526;DHT22;11429;50.842;4.386;2023-01-28T10:05:24;5.20;99.90
22526;DHT22;11429;50.842;4.386;2023-01-28T10:10:49;4.80;99.90
22526;DHT22;11429;50.842;4.386;2023-01-28T10:13:55;5.20;99.90
22526;DHT22;11429;50.842;4.386;2023-01-28T10:16:44;5.30;99.90
22526;DHT22;11429;50.842;4.386;2023-01-28T10:19:20;5.10;99.90
22526;DHT22;11429;50.842;4.386;2023-01-28T10:21:59;5.00;99.90
22526;DHT22;11429;50.842;4.386;2023-01-28T10:24:38;4.80;99.90
22526;DHT22;11429;50.842;4.386;2023-01-28T10:27:23;5.00;99.90
22526;DHT22;11429;50.842;4.386;2023-01-28T10:29:50;5.10;99.90
22526;DHT22;11429;50.842;4.386;2023-01-28T10:32:31;5.30;99.90
22526;DHT22;11429;50.842;4.386;2023-01-28T10:34:59;5.10;99.90
22526;DHT22;11429;50.842;4.386;2023-01-28T10:37:26;5.10;99.90
22526;DHT22;11429;50.842;4.386;2023-01-28T10:39:57;4.90;99.90
22526;DHT22;11429;50.842;4.386;2023-01-28T10:45:01;5.00;99.90
22526;DHT22;11429;50.842;4.386;2023-01-28T10:47:37;5.00;99.90
22526;DHT22;11429;50.842;4.386;2023-01-28T10:50:04;5.20;99.90
22526;DHT22;11429;50.842;4.386;2023-01-28T10:52:31;5.10;99.90
22526;DHT22;11429;50.842;4.386;2023-01-28T10:55:02;5.40;99.90
22526;DHT22;11429;50.842;4.386;2023-01-28T10:57:28;5.50;99.90
22526;DHT22;11429;50.842;4.386;2023-01-28T10:59:54;5.50;99.90
22526;DHT22;11429;50.842;4.386;2023-01-28T11:02:24;5.60;99.90
22526;DHT22;11429;50.842;4.386;2023-01-28T11:05:24;5.40;99.90
22526;DHT22;11429;50.842;4.386;2023-01-28T11:08:12;5.50;99.90
22526;DHT22;11429;50.842;4.386;2023-01-28T11:10:42;5.20;99.90
22526;DHT22;11429;50.842;4.386;2023-01-28T11:13:19;5.00;99.90
22526;DHT22;11429;50.842;4.386;2023-01-28T11:15:52;5.10;99.90
22526;DHT22;11429;50.842;4.386;2023-01-28T11:18:26;5.00;99.90
22526;DHT22;11429;50.842;4.386;2023-01-28T11:21:04;5.30;99.90
22526;DHT22;11429;50.842;4.386;2023-01-28T11:23:33;5.10;99.90
22526;DHT22;11429;50.842;4.386;2023-01-28T11:26:28;5.10;99.90
22526;DHT22;11429;50.842;4.386;2023-01-28T11:28:54;5.10;99.90
22526;DHT22;11429;50.842;4.386;2023-01-28T11:31:22;5.10;99.90
22526;DHT22;11429;50.842;4.386;2023-01-28T11:36:21;5.40;99.90
22526;DHT22;11429;50.842;4.386;2023-01-28T11:39:00;5.40;99.90
22526;DHT22;11429;50.842;4.386;2023-01-28T11:41:30;5.10;99.90
22526;DHT22;11429;50.842;4.386;2023-01-28T11:43:58;4.80;99.90
22526;DHT22;11429;50.842;4.386;2023-01-28T11:49:10;5.10;99.90
22526;DHT22;11429;50.842;4.386;2023-01-28T11:55:34;4.70;99.90
22526;DHT22;11429;50.842;4.386;2023-01-28T12:04:32;5.10;99.90
22526;DHT22;11429;50.842;4.386;2023-01-28T12:09:37;5.30;99.90
22526;DHT22;11429;50.842;4.386;2023-01-28T12:12:16;5.40;99.90
22526;DHT22;11429;50.842;4.386;2023-01-28T12:15:23;5.20;99.90
22526;DHT22;11429;50.842;4.386;2023-01-28T12:23:45;5.20;99.90
22526;DHT22;11429;50.842;4.386;2023-01-28T12:42:41;5.00;99.90
22526;DHT22;11429;50.842;4.386;2023-01-28T12:45:14;4.20;99.90
22526;DHT22;11429;50.842;4.386;2023-01-28T12:47:47;4.40;99.90
22526;DHT22;11429;50.842;4.386;2023-01-28T12:50:24;5.30;99.90
22526;DHT22;11429;50.842;4.386;2023-01-28T12:52:56;5.50;99.90
22526;DHT22;11429;50.842;4.386;2023-01-28T12:58:39;4.70;99.90
22526;DHT22;11429;50.842;4.386;2023-01-28T13:01:11;4.60;99.90
22526;DHT22;11429;50.842;4.386;2023-01-28T13:04:05;5.10;99.90
22526;DHT22;11429;50.842;4.386;2023-01-28T13:06:54;5.30;99.90
22526;DHT22;11429;50.842;4.386;2023-01-28T13:09:24;5.90;99.90
22526;DHT22;11429;50.842;4.386;2023-01-28T13:11:53;6.10;99.90
22526;DHT22;11429;50.842;4.386;2023-01-28T13:14:24;6.20;99.90
22526;DHT22;11429;50.842;4.386;2023-01-28T13:16:51;5.40;99.90
22526;DHT22;11429;50.842;4.386;2023-01-28T13:21:43;5.90;99.90
22526;DHT22;11429;50.842;4.386;2023-01-28T13:26:48;5.70;99.90
22526;DHT22;11429;50.842;4.386;2023-01-28T13:31:46;5.70;99.90
22526;DHT22;11429;50.842;4.386;2023-01-28T13:37:27;6.20;99.90
22526;DHT22;11429;50.842;4.386;2023-01-28T13:42:27;5.50;99.90
22526;DHT22;11429;50.842;4.386;2023-01-28T13:44:53;5.60;99.90
22526;DHT22;11429;50.842;4.386;2023-01-28T13:47:23;5.70;99.90
22526;DHT22;11429;50.842;4.386;2023-01-28T13:52:31;5.40;99.90
22526;DHT22;11429;50.842;4.386;2023-01-28T14:00:59;6.50;99.90
22526;DHT22;11429;50.842;4.386;2023-01-28T14:06:24;5.90;99.90
22526;DHT22;11429;50.842;4.386;2023-01-28T14:17:43;6.40;99.90
22526;DHT22;11429;50.842;4.386;2023-01-28T14:22:50;6.40;99.90
22526;DHT22;11429;50.842;4.386;2023-01-28T14:25:32;6.40;99.90
22526;DHT22;11429;50.842;4.386;2023-01-28T14:28:00;6.00;99.90
22526;DHT22;11429;50.842;4.386;2023-01-28T14:30:29;5.50;99.90
22526;DHT22;11429;50.842;4.386;2023-01-28T14:32:57;5.80;99.90
22526;DHT22;11429;50.842;4.386;2023-01-28T14:35:28;6.10;99.90
22526;DHT22;11429;50.842;4.386;2023-01-28T14:37:55;6.10;99.90
22526;DHT22;11429;50.842;4.386;2023-01-28T14:40:22;5.90;99.90
22526;DHT22;11429;50.842;4.386;2023-01-28T14:42:52;6.00;99.90
22526;DHT22;11429;50.842;4.386;2023-01-28T14:58:21;5.50;99.90
22526;DHT22;11429;50.842;4.386;2023-01-28T15:00:53;5.40;99.90
22526;DHT22;11429;50.842;4.386;2023-01-28T15:03:20;5.50;99.90
22526;DHT22;11429;50.842;4.386;2023-01-28T15:05:47;5.70;99.90
22526;DHT22;11429;50.842;4.386;2023-01-28T15:08:20;5.70;99.90
22526;DHT22;11429;50.842;4.386;2023-01-28T15:10:46;5.40;99.90
22526;DHT22;11429;50.842;4.386;2023-01-28T15:13:26;5.20;99.90
22526;DHT22;11429;50.842;4.386;2023-01-28T15:15:53;4.70;99.90
22526;DHT22;11429;50.842;4.386;2023-01-28T15:18:39;4.70;99.90
22526;DHT22;11429;50.842;4.386;2023-01-28T15:21:07;5.20;99.90
22526;DHT22;11429;50.842;4.386;2023-01-28T15:23:38;5.60;99.90
22526;DHT22;11429;50.842;4.386;2023-01-28T15:26:19;5.70;99.90
22526;DHT22;11429;50.842;4.386;2023-01-28T15:28:46;5.30;99.90
22526;DHT22;11429;50.842;4.386;2023-01-28T15:31:21;5.30;99.90
22526;DHT22;11429;50.842;4.386;2023-01-28T15:34:21;5.50;99.90
22526;DHT22;11429;50.842;4.386;2023-01-28T15:36:40;5.40;99.90
22526;DHT22;11429;50.842;4.386;2023-01-28T15:39:20;5.90;99.90
22526;DHT22;11429;50.842;4.386;2023-01-28T15:41:50;5.60;99.90
22526;DHT22;11429;50.842;4.386;2023-01-28T15:47:02;5.00;99.90
22526;DHT22;11429;50.842;4.386;2023-01-28T15:49:36;5.10;99.90
22526;DHT22;11429;50.842;4.386;2023-01-28T15:52:05;5.50;99.90
22526;DHT22;11429;50.842;4.386;2023-01-28T15:54:37;5.10;99.90
22526;DHT22;11429;50.842;4.386;2023-01-28T15:57:17;4.80;99.90
22526;DHT22;11429;50.842;4.386;2023-01-28T15:59:43;4.30;99.90
22526;DHT22;11429;50.842;4.386;2023-01-28T16:02:21;4.60;99.90
22526;DHT22;11429;50.842;4.386;2023-01-28T16:05:05;4.40;99.90
22526;DHT22;11429;50.842;4.386;2023-01-28T16:07:43;4.70;99.90
22526;DHT22;11429;50.842;4.386;2023-01-28T16:10:29;4.70;99.90
22526;DHT22;11429;50.842;4.386;2023-01-28T16:13:18;4.70;99.90
22526;DHT22;11429;50.842;4.386;2023-01-28T16:15:46;4.90;99.90
22526;DHT22;11429;50.842;4.386;2023-01-28T16:20:53;4.80;99.90
22526;DHT22;11429;50.842;4.386;2023-01-28T16:23:24;4.80;99.90
22526;DHT22;11429;50.842;4.386;2023-01-28T16:25:58;4.90;99.90
22526;DHT22;11429;50.842;4.386;2023-01-28T16:28:25;4.90;99.90
22526;DHT22;11429;50.842;4.386;2023-01-28T16:30:51;4.80;99.90
22526;DHT22;11429;50.842;4.386;2023-01-28T16:33:18;5.10;99.90
22526;DHT22;11429;50.842;4.386;2023-01-28T16:35:44;5.20;99.90
22526;DHT22;11429;50.842;4.386;2023-01-28T16:38:09;5.10;99.90
22526;DHT22;11429;50.842;4.386;2023-01-28T16:40:45;5.00;99.90
22526;DHT22;11429;50.842;4.386;2023-01-28T16:43:13;5.20;99.90
22526;DHT22;11429;50.842;4.386;2023-01-28T16:45:41;5.30;99.90
22526;DHT22;11429;50.842;4.386;2023-01-28T16:48:07;5.20;99.90
22526;DHT22;11429;50.842;4.386;2023-01-28T16:50:33;5.00;99.90
22526;DHT22;11429;50.842;4.386;2023-01-28T16:52:59;5.20;99.90
22526;DHT22;11429;50.842;4.386;2023-01-28T16:55:25;5.30;99.90
22526;DHT22;11429;50.842;4.386;2023-01-28T16:57:54;5.40;99.90
22526;DHT22;11429;50.842;4.386;2023-01-28T17:00:25;5.00;99.90
22526;DHT22;11429;50.842;4.386;2023-01-28T17:02:52;4.40;99.90
22526;DHT22;11429;50.842;4.386;2023-01-28T17:05:19;4.40;99.90
22526;DHT22;11429;50.842;4.386;2023-01-28T17:07:46;4.40;99.90
22526;DHT22;11429;50.842;4.386;2023-01-28T17:10:17;4.40;99.90
22526;DHT22;11429;50.842;4.386;2023-01-28T17:12:46;4.40;99.90
22526;DHT22;11429;50.842;4.386;2023-01-28T17:15:12;4.50;99.90
22526;DHT22;11429;50.842;4.386;2023-01-28T17:17:38;4.60;99.90
22526;DHT22;11429;50.842;4.386;2023-01-28T17:20:04;5.10;99.90
22526;DHT22;11429;50.842;4.386;2023-01-28T17:22:30;4.90;99.90
22526;DHT22;11429;50.842;4.386;2023-01-28T17:24:56;4.60;99.90
22526;DHT22;11429;50.842;4.386;2023-01-28T17:27:22;4.00;99.90
22526;DHT22;11429;50.842;4.386;2023-01-28T17:29:47;4.20;99.90
22526;DHT22;11429;50.842;4.386;2023-01-28T17:32:13;4.30;99.90
22526;DHT22;11429;50.842;4.386;2023-01-28T17:34:38;4.80;99.90
22526;DHT22;11429;50.842;4.386;2023-01-28T17:37:04;4.60;99.90
22526;DHT22;11429;50.842;4.386;2023-01-28T17:39:30;4.40;99.90
22526;DHT22;11429;50.842;4.386;2023-01-28T17:41:55;4.10;99.90
22526;DHT22;11429;50.842;4.386;2023-01-28T17:44:21;3.90;99.90
22526;DHT22;11429;50.842;4.386;2023-01-28T17:46:47;3.60;99.90
22526;DHT22;11429;50.842;4.386;2023-01-28T17:49:13;3.60;99.90
22526;DHT22;11429;50.842;4.386;2023-01-28T17:51:38;4.00;99.90
22526;DHT22;11429;50.842;4.386;2023-01-28T17:54:04;4.10;99.90
22526;DHT22;11429;50.842;4.386;2023-01-28T17:56:30;4.00;99.90
22526;DHT22;11429;50.842;4.386;2023-01-28T17:58:59;4.00;99.90
22526;DHT22;11429;50.842;4.386;2023-01-28T18:01:27;3.40;99.90
22526;DHT22;11429;50.842;4.386;2023-01-28T18:03:53;3.00;99.90
22526;DHT22;11429;50.842;4.386;2023-01-28T18:06:20;2.80;99.90
22526;DHT22;11429;50.842;4.386;2023-01-28T18:08:46;2.90;99.90
22526;DHT22;11429;50.842;4.386;2023-01-28T18:11:14;3.10;99.90
22526;DHT22;11429;50.842;4.386;2023-01-28T18:13:41;3.70;99.90
22526;DHT22;11429;50.842;4.386;2023-01-28T18:16:09;4.20;99.90
22526;DHT22;11429;50.842;4.386;2023-01-28T18:18:35;3.80;99.90
22526;DHT22;11429;50.842;4.386;2023-01-28T18:21:05;3.60;99.90